Time;durP1;ratioP1;P1;durP2;ratioP2;P2;SDS_P1;SDS_P2;PMS_P1;PMS_P2;Temp;Humidity;BMP_temperature;BMP_pressure;BME280_temperature;BME280_humidity;BME280_pressure;Samples;Min_cycle;Max_cycle;Signal;HPM_P1;HPM_P2
2021/05/21 00:00:27;;;;;;;0.82;0.82;;;17.20;61.40;;;;;;5035254;28;20041;-82
2021/05/21 00:02:53;;;;;;;0.70;0.70;;;17.20;61.40;;;;;;5034330;28;20124;-84
2021/05/21 00:05:19;;;;;;;0.70;0.70;;;17.20;61.40;;;;;;5027850;28;20029;-82
2021/05/21 00:07:45;;;;;;;1.02;0.85;;;17.20;61.40;;;;;;5003533;28;20472;-83
2021/05/21 00:10:11;;;;;;;1.30;0.93;;;17.20;61.40;;;;;;5034054;28;20025;-83
2021/05/21 00:12:37;;;;;;;0.70;0.70;;;17.20;61.40;;;;;;5052105;28;20420;-83
2021/05/21 00:15:05;;;;;;;1.70;0.90;;;17.10;61.40;;;;;;5034473;28;20032;-83
2021/05/21 00:17:31;;;;;;;0.77;0.77;;;17.10;61.40;;;;;;5034867;28;20091;-83
2021/05/21 00:19:56;;;;;;;0.80;0.80;;;17.10;61.50;;;;;;5051238;28;20469;-82
2021/05/21 00:22:22;;;;;;;0.75;0.75;;;17.10;61.50;;;;;;5034315;28;20489;-82
2021/05/21 00:24:48;;;;;;;1.42;0.80;;;17.10;61.50;;;;;;5034363;28;20044;-82
2021/05/21 00:27:14;;;;;;;0.93;0.90;;;17.10;61.50;;;;;;5034719;28;20040;-82
2021/05/21 00:29:40;;;;;;;1.23;0.80;;;17.10;61.50;;;;;;5044823;28;20044;-82
2021/05/21 00:32:06;;;;;;;1.73;0.90;;;17.10;61.50;;;;;;5017941;28;20029;-82
2021/05/21 00:34:31;;;;;;;0.73;0.73;;;17.10;61.50;;;;;;5035287;28;20123;-83
2021/05/21 00:36:57;;;;;;;0.70;0.70;;;17.00;61.40;;;;;;5030159;28;20048;-83
2021/05/21 00:39:23;;;;;;;0.80;0.80;;;17.00;61.50;;;;;;5017702;28;20033;-83
2021/05/21 00:41:49;;;;;;;0.80;0.80;;;17.00;61.50;;;;;;5018662;28;20033;-83
2021/05/21 00:44:15;;;;;;;0.90;0.80;;;17.00;61.50;;;;;;5034673;28;20068;-84
2021/05/21 00:46:41;;;;;;;1.00;0.90;;;17.00;61.70;;;;;;5002138;28;20033;-83
2021/05/21 00:49:07;;;;;;;0.85;0.85;;;17.00;61.60;;;;;;5005542;28;20476;-83
2021/05/21 00:51:33;;;;;;;1.55;0.77;;;17.00;61.60;;;;;;5044987;28;20438;-83
2021/05/21 00:53:59;;;;;;;1.00;0.90;;;17.00;61.60;;;;;;5028427;28;20032;-82
2021/05/21 00:56:29;;;;;;;1.25;0.75;;;17.00;61.60;;;;;;5052672;28;20492;-83
2021/05/21 00:58:57;;;;;;;1.00;0.90;;;17.00;61.60;;;;;;5008894;28;20033;-83
2021/05/21 01:01:28;;;;;;;0.80;0.80;;;17.00;61.70;;;;;;5050161;28;20025;-83
2021/05/21 01:03:54;;;;;;;0.80;0.80;;;17.00;61.70;;;;;;5034534;28;20086;-83
2021/05/21 01:06:19;;;;;;;1.35;0.90;;;16.90;61.60;;;;;;5030782;28;20026;-83
2021/05/21 01:08:45;;;;;;;1.50;0.80;;;16.90;61.70;;;;;;5022229;28;20033;-83
2021/05/21 01:11:11;;;;;;;1.40;0.80;;;16.90;61.70;;;;;;5014669;28;20030;-83
2021/05/21 01:13:37;;;;;;;0.75;0.75;;;16.90;61.70;;;;;;5034087;28;20041;-83
2021/05/21 01:16:03;;;;;;;0.80;0.80;;;16.90;61.70;;;;;;5031148;28;20031;-83
2021/05/21 01:18:29;;;;;;;0.73;0.73;;;16.90;61.80;;;;;;5048240;28;20094;-82
2021/05/21 01:20:55;;;;;;;0.80;0.80;;;16.90;61.80;;;;;;5034675;28;20124;-82
2021/05/21 01:23:21;;;;;;;1.42;0.80;;;16.90;61.90;;;;;;5033976;28;20565;-82
2021/05/21 01:25:47;;;;;;;1.00;0.80;;;16.90;62.00;;;;;;5015267;28;20122;-83
2021/05/21 01:28:15;;;;;;;0.70;0.70;;;16.90;62.10;;;;;;5037874;28;20040;-83
2021/05/21 01:30:41;;;;;;;0.80;0.80;;;16.90;62.10;;;;;;4997652;28;20025;-83
2021/05/21 01:33:09;;;;;;;0.82;0.82;;;16.90;62.20;;;;;;5030470;28;20048;-82
2021/05/21 01:35:35;;;;;;;1.02;0.90;;;16.80;62.20;;;;;;5051018;28;20406;-82
2021/05/21 01:38:01;;;;;;;0.70;0.70;;;16.90;62.20;;;;;;5034318;28;20025;-84
2021/05/21 01:40:28;;;;;;;1.17;1.08;;;16.80;62.30;;;;;;5034366;28;20036;-82
2021/05/21 01:42:58;;;;;;;0.80;0.80;;;16.80;62.30;;;;;;5050191;28;20020;-83
2021/05/21 01:45:23;;;;;;;0.70;0.70;;;16.80;62.30;;;;;;5033234;28;20041;-83
2021/05/21 01:47:50;;;;;;;0.70;0.70;;;16.80;62.30;;;;;;5033909;28;20136;-82
2021/05/21 01:50:16;;;;;;;0.90;0.80;;;16.80;62.40;;;;;;5033771;28;20036;-82
2021/05/21 01:52:43;;;;;;;0.70;0.70;;;16.80;62.50;;;;;;5023811;28;20025;-82
2021/05/21 01:55:09;;;;;;;0.85;0.70;;;16.80;62.60;;;;;;5037860;28;20088;-82
2021/05/21 01:57:39;;;;;;;0.80;0.80;;;16.80;62.60;;;;;;5054491;28;20029;-82
2021/05/21 02:00:08;;;;;;;1.23;0.85;;;16.80;62.60;;;;;;5037618;28;20032;-82
2021/05/21 02:02:39;;;;;;;0.70;0.70;;;16.80;62.60;;;;;;5039166;28;20108;-82
2021/05/21 02:05:06;;;;;;;0.95;0.90;;;16.80;62.70;;;;;;5037762;28;20086;-82
2021/05/21 02:07:33;;;;;;;0.85;0.85;;;16.80;62.70;;;;;;5016888;28;20057;-82
2021/05/21 02:10:02;;;;;;;0.85;0.80;;;16.80;62.70;;;;;;5051211;28;20075;-83
2021/05/21 02:12:33;;;;;;;1.17;0.95;;;16.80;62.70;;;;;;5034481;28;20419;-82
2021/05/21 02:15:01;;;;;;;1.48;1.10;;;16.80;62.70;;;;;;5035518;28;20087;-83
2021/05/21 02:17:27;;;;;;;1.02;0.80;;;16.80;62.80;;;;;;5049612;28;20075;-84
2021/05/21 02:19:57;;;;;;;0.70;0.70;;;16.70;62.70;;;;;;5035400;28;20021;-83
2021/05/21 02:22:23;;;;;;;0.80;0.80;;;16.80;62.80;;;;;;5033771;28;20053;-82
2021/05/21 02:24:52;;;;;;;0.85;0.85;;;16.80;62.80;;;;;;5053728;28;20029;-82
2021/05/21 02:27:18;;;;;;;0.88;0.70;;;16.70;62.90;;;;;;5028905;28;20034;-82
2021/05/21 02:29:44;;;;;;;1.05;0.90;;;16.70;62.90;;;;;;5035157;28;20382;-83
2021/05/21 02:32:09;;;;;;;1.70;0.95;;;16.70;62.90;;;;;;5053603;28;20513;-82
2021/05/21 02:34:36;;;;;;;1.35;0.90;;;16.70;62.90;;;;;;5052866;28;20042;-84
2021/05/21 02:37:01;;;;;;;1.08;0.90;;;16.70;62.90;;;;;;5024593;28;20042;-82
2021/05/21 02:39:27;;;;;;;2.15;1.15;;;16.70;63.60;;;;;;5007113;28;20109;-82
2021/05/21 02:41:53;;;;;;;1.73;0.90;;;16.70;62.90;;;;;;5006659;28;20102;-83
2021/05/21 02:44:19;;;;;;;1.52;1.10;;;16.70;63.00;;;;;;5036425;28;20033;-83
2021/05/21 02:46:45;;;;;;;2.63;1.10;;;16.70;63.00;;;;;;5041943;28;20033;-83
2021/05/21 02:49:10;;;;;;;1.90;1.23;;;16.70;63.10;;;;;;5015365;28;20029;-83
2021/05/21 02:51:37;;;;;;;2.20;1.00;;;16.70;63.00;;;;;;5034305;28;20771;-83
2021/05/21 02:54:03;;;;;;;2.38;1.10;;;16.70;63.10;;;;;;5030421;28;20108;-84
2021/05/21 02:56:29;;;;;;;3.03;1.30;;;16.70;63.20;;;;;;5008198;28;20205;-84
2021/05/21 02:58:54;;;;;;;3.50;1.40;;;16.70;63.20;;;;;;5016012;28;20502;-84
2021/05/21 03:01:20;;;;;;;1.55;1.02;;;16.70;63.20;;;;;;4977109;28;20034;-83
2021/05/21 03:03:46;;;;;;;2.28;1.10;;;16.60;63.10;;;;;;5017691;28;20039;-85
2021/05/21 03:06:11;;;;;;;2.00;1.20;;;16.60;63.20;;;;;;5015835;28;20108;-84
2021/05/21 03:08:37;;;;;;;2.72;1.30;;;16.70;63.20;;;;;;5046219;28;20091;-84
2021/05/21 03:11:03;;;;;;;3.25;1.20;;;16.60;63.10;;;;;;5007949;28;20036;-84
2021/05/21 03:13:29;;;;;;;4.07;1.40;;;16.60;63.20;;;;;;5047434;28;20048;-83
2021/05/21 03:15:54;;;;;;;2.22;1.20;;;16.60;63.20;;;;;;5026208;28;20452;-84
2021/05/21 03:18:23;;;;;;;3.15;1.52;;;16.60;63.30;;;;;;5013679;28;20030;-84
2021/05/21 03:20:50;;;;;;;3.22;1.30;;;16.60;63.30;;;;;;5012753;28;20030;-85
2021/05/21 03:23:17;;;;;;;2.92;1.20;;;16.50;63.20;;;;;;5004580;28;20033;-84
2021/05/21 03:25:44;;;;;;;3.90;1.35;;;16.50;63.30;;;;;;5030380;28;20053;-84
2021/05/21 03:28:11;;;;;;;2.20;1.25;;;16.50;63.30;;;;;;5035239;28;20100;-84
2021/05/21 03:30:38;;;;;;;3.33;1.60;;;16.50;63.30;;;;;;5002141;28;20441;-85
2021/05/21 03:33:05;;;;;;;3.55;1.27;;;16.50;63.30;;;;;;5008505;28;20153;-85
2021/05/21 03:35:31;;;;;;;3.05;1.40;;;16.40;63.30;;;;;;5027601;28;20048;-84
2021/05/21 03:37:57;;;;;;;3.72;1.30;;;16.40;63.30;;;;;;5055542;28;20035;-85
2021/05/21 03:40:23;;;;;;;2.70;1.27;;;16.40;63.30;;;;;;5039009;28;20035;-84
2021/05/21 03:42:49;;;;;;;2.92;1.30;;;16.40;63.30;;;;;;5036157;28;20025;-85
2021/05/21 03:45:17;;;;;;;3.40;1.50;;;16.40;63.30;;;;;;5019691;28;20557;-84
2021/05/21 03:47:45;;;;;;;1.55;1.00;;;16.40;63.30;;;;;;5055585;28;20267;-85
2021/05/21 03:50:12;;;;;;;3.60;1.48;;;16.30;63.30;;;;;;5050105;28;20045;-84
2021/05/21 03:52:38;;;;;;;2.85;1.40;;;16.30;63.30;;;;;;5012618;28;20057;-84
2021/05/21 03:55:04;;;;;;;1.73;1.10;;;16.30;63.30;;;;;;5072229;28;20059;-84
2021/05/21 03:57:30;;;;;;;2.55;1.30;;;16.30;63.30;;;;;;5039201;28;20079;-84
2021/05/21 03:59:57;;;;;;;3.42;1.25;;;16.20;63.30;;;;;;5039100;28;20757;-84
2021/05/21 04:02:23;;;;;;;2.60;1.40;;;16.20;63.30;;;;;;5038236;28;20032;-84
2021/05/21 04:04:51;;;;;;;2.00;0.90;;;16.20;63.30;;;;;;5038751;28;20020;-84
2021/05/21 04:07:17;;;;;;;2.70;1.38;;;16.20;63.30;;;;;;5039037;28;20174;-84
2021/05/21 04:09:43;;;;;;;4.10;1.20;;;16.20;63.30;;;;;;5035320;28;20021;-84
2021/05/21 04:12:09;;;;;;;2.75;1.25;;;16.10;63.30;;;;;;5005919;28;20024;-83
2021/05/21 04:14:34;;;;;;;2.95;1.20;;;16.10;63.30;;;;;;5038795;28;20393;-84
2021/05/21 04:17:00;;;;;;;2.53;1.10;;;16.10;63.30;;;;;;5020444;28;20033;-85
2021/05/21 04:19:26;;;;;;;3.15;1.60;;;16.10;63.30;;;;;;5028515;28;20039;-84
2021/05/21 04:21:52;;;;;;;2.38;1.27;;;16.10;63.40;;;;;;5030420;28;20033;-84
2021/05/21 04:24:18;;;;;;;3.70;1.30;;;16.00;63.30;;;;;;5015545;28;20336;-84
2021/05/21 04:26:43;;;;;;;2.97;1.23;;;16.00;63.30;;;;;;5034918;28;20032;-85
2021/05/21 04:29:09;;;;;;;2.13;1.10;;;16.00;63.30;;;;;;5052767;28;20392;-84
2021/05/21 04:31:35;;;;;;;2.63;1.23;;;16.00;63.40;;;;;;5038632;28;20120;-84
2021/05/21 04:34:01;;;;;;;3.80;1.30;;;16.00;63.40;;;;;;5039289;28;20040;-85
2021/05/21 04:36:26;;;;;;;3.33;1.42;;;15.90;63.40;;;;;;5022562;28;20131;-85
2021/05/21 04:38:52;;;;;;;3.28;1.10;;;15.90;63.30;;;;;;5021857;28;20028;-84
2021/05/21 04:41:18;;;;;;;2.53;1.13;;;15.90;63.40;;;;;;5038745;28;20465;-86
2021/05/21 04:43:45;;;;;;;3.53;1.40;;;15.90;63.40;;;;;;5021607;28;20037;-85
2021/05/21 04:46:11;;;;;;;2.72;1.30;;;15.90;63.40;;;;;;5021141;28;20433;-89
2021/05/21 04:48:37;;;;;;;1.65;1.08;;;15.80;63.30;;;;;;5022322;28;20060;-85
2021/05/21 04:51:03;;;;;;;2.95;1.40;;;15.80;63.40;;;;;;5035243;28;20036;-88
2021/05/21 04:53:29;;;;;;;2.22;1.20;;;15.80;63.40;;;;;;5033668;28;20039;-87
2021/05/21 04:55:54;;;;;;;1.92;1.13;;;15.80;63.40;;;;;;5012116;28;20040;-87
2021/05/21 04:58:20;;;;;;;2.78;1.20;;;15.80;63.40;;;;;;5037437;28;20047;-90
2021/05/21 05:00:46;;;;;;;2.72;1.13;;;15.70;63.40;;;;;;5035383;28;20469;-92
2021/05/21 05:03:17;;;;;;;2.33;1.23;;;15.80;63.40;;;;;;5032053;28;20475;-92
2021/05/21 05:05:44;;;;;;;2.72;1.00;;;15.70;63.40;;;;;;5027973;28;20489;-91
2021/05/21 05:08:13;;;;;;;2.13;1.20;;;15.70;63.50;;;;;;5038184;28;20021;-90
2021/05/21 05:10:41;;;;;;;1.90;1.40;;;15.70;63.50;;;;;;5056194;28;20052;-91
2021/05/21 05:13:07;;;;;;;2.10;1.13;;;15.70;63.50;;;;;;5056099;28;20096;-88
2021/05/21 05:15:34;;;;;;;2.50;1.20;;;15.70;63.50;;;;;;5038736;28;20032;-89
2021/05/21 05:18:01;;;;;;;2.22;1.10;;;15.70;63.50;;;;;;5039228;28;20017;-89
2021/05/21 05:20:27;;;;;;;3.22;1.42;;;15.70;63.60;;;;;;5055024;28;20056;-79
2021/05/21 05:22:54;;;;;;;2.88;1.15;;;15.70;63.60;;;;;;5054137;28;20039;-82
2021/05/21 05:25:20;;;;;;;2.10;1.17;;;15.70;63.60;;;;;;5053361;28;20059;-81
2021/05/21 05:27:47;;;;;;;1.50;1.00;;;15.60;63.60;;;;;;5045831;28;20029;-84
2021/05/21 05:30:13;;;;;;;3.63;1.23;;;15.60;63.60;;;;;;5031866;28;20036;-83
2021/05/21 05:32:39;;;;;;;2.45;1.20;;;15.60;63.60;;;;;;5024937;28;20024;-85
2021/05/21 05:35:06;;;;;;;2.45;1.15;;;15.60;63.60;;;;;;5038303;28;20037;-81
2021/05/21 05:37:32;;;;;;;2.55;1.20;;;15.60;63.60;;;;;;5055321;28;20052;-82
2021/05/21 05:39:58;;;;;;;1.63;1.10;;;15.60;63.60;;;;;;5058021;28;20055;-82
2021/05/21 05:42:24;;;;;;;2.72;1.25;;;15.60;63.60;;;;;;5038253;28;20079;-83
2021/05/21 05:44:49;;;;;;;3.05;1.27;;;15.60;63.70;;;;;;5072650;28;20028;-83
2021/05/21 05:47:15;;;;;;;2.28;1.30;;;15.60;63.70;;;;;;5036618;28;20033;-88
2021/05/21 05:49:41;;;;;;;2.95;1.40;;;15.60;63.60;;;;;;5007077;28;20112;-89
2021/05/21 05:52:07;;;;;;;1.83;0.93;;;15.60;63.70;;;;;;5037381;28;20591;-88
2021/05/21 05:54:33;;;;;;;2.35;1.20;;;15.50;63.60;;;;;;5025884;28;20162;-88
2021/05/21 05:56:59;;;;;;;2.88;1.30;;;15.60;63.70;;;;;;5076448;28;20115;-88
2021/05/21 05:59:26;;;;;;;3.20;1.50;;;15.50;63.60;;;;;;5037412;28;20029;-86
2021/05/21 06:01:52;;;;;;;2.40;1.10;;;15.50;63.60;;;;;;5016696;28;20127;-86
2021/05/21 06:04:18;;;;;;;2.10;1.10;;;15.50;63.60;;;;;;5041402;28;20115;-85
2021/05/21 06:06:44;;;;;;;1.58;1.05;;;15.50;63.60;;;;;;5041637;28;20040;-87
2021/05/21 06:09:09;;;;;;;2.35;1.02;;;15.50;63.60;;;;;;5041993;28;20029;-89
2021/05/21 06:11:37;;;;;;;2.83;1.23;;;15.50;63.60;;;;;;5042014;28;20427;-87
2021/05/21 06:14:04;;;;;;;2.97;1.20;;;15.50;63.60;;;;;;5041547;28;20044;-87
2021/05/21 06:16:30;;;;;;;2.10;1.23;;;15.50;63.60;;;;;;5042552;28;20031;-88
2021/05/21 06:18:56;;;;;;;3.35;1.55;;;15.50;63.60;;;;;;5065606;28;20020;-86
2021/05/21 06:21:22;;;;;;;2.28;1.25;;;15.50;63.60;;;;;;5061138;28;20024;-89
2021/05/21 06:23:48;;;;;;;1.73;1.20;;;15.50;63.60;;;;;;5058298;28;20112;-87
2021/05/21 06:28:53;;;;;;;3.80;1.17;;;15.50;63.60;;;;;;5067379;28;20055;-86
2021/05/21 06:31:20;;;;;;;2.55;1.23;;;15.50;63.60;;;;;;5052443;28;20465;-87
2021/05/21 06:33:46;;;;;;;3.72;1.50;;;15.50;63.60;;;;;;5046578;28;20036;-90
2021/05/21 06:36:12;;;;;;;2.20;1.40;;;15.50;63.60;;;;;;5047058;28;20052;-86
2021/05/21 06:38:39;;;;;;;3.78;1.20;;;15.50;63.60;;;;;;5044408;28;20052;-88
2021/05/21 06:41:05;;;;;;;4.03;1.35;;;15.50;63.60;;;;;;5023882;28;20563;-87
2021/05/21 06:43:32;;;;;;;4.18;1.10;;;15.50;63.50;;;;;;5030566;28;20069;-91
2021/05/21 06:45:59;;;;;;;3.67;1.38;;;15.50;63.50;;;;;;5027738;28;20026;-85
2021/05/21 06:48:32;;;;;;;3.78;1.30;;;15.50;63.50;;;;;;5053836;28;20040;-86
2021/05/21 06:51:06;;;;;;;1.80;1.08;;;15.50;63.50;;;;;;5053928;28;20022;-91
2021/05/21 06:53:33;;;;;;;2.80;1.40;;;15.50;63.50;;;;;;5020613;28;20033;-85
2021/05/21 06:55:59;;;;;;;3.28;1.23;;;15.50;63.40;;;;;;5032145;28;20022;-84
2021/05/21 06:58:27;;;;;;;2.97;1.40;;;15.50;63.30;;;;;;5051547;28;20473;-84
2021/05/21 07:00:56;;;;;;;2.30;1.15;;;15.50;63.40;;;;;;5054723;28;20021;-83
2021/05/21 07:03:25;;;;;;;3.10;1.42;;;15.50;63.40;;;;;;5052857;28;20121;-82
2021/05/21 07:05:51;;;;;;;3.53;1.35;;;15.50;63.30;;;;;;5033077;28;20140;-84
2021/05/21 07:08:17;;;;;;;3.88;1.40;;;15.50;63.30;;;;;;5036710;28;20134;-87
2021/05/21 07:10:42;;;;;;;2.40;1.40;;;15.50;63.30;;;;;;5034504;28;20448;-84
2021/05/21 07:13:17;;;;;;;3.78;1.38;;;15.50;63.90;;;;;;5054583;28;20074;-83
2021/05/21 07:15:44;;;;;;;3.78;1.40;;;15.50;63.30;;;;;;5048694;28;20051;-83
2021/05/21 07:18:10;;;;;;;2.72;1.17;;;15.50;63.20;;;;;;5020062;28;20362;-83
2021/05/21 07:20:36;;;;;;;2.58;1.30;;;15.50;63.20;;;;;;5036241;28;20021;-83
2021/05/21 07:23:03;;;;;;;4.65;1.63;;;15.50;63.20;;;;;;5032711;28;20087;-82
2021/05/21 07:25:29;;;;;;;3.10;1.27;;;15.50;63.20;;;;;;5048918;28;20124;-83
2021/05/21 07:27:55;;;;;;;1.90;1.10;;;15.50;63.20;;;;;;5052383;28;20119;-82
2021/05/21 07:30:21;;;;;;;3.60;1.30;;;15.60;63.90;;;;;;5036132;28;20057;-84
2021/05/21 07:32:47;;;;;;;2.67;1.23;;;15.60;63.20;;;;;;5035841;28;20052;-82
2021/05/21 07:35:13;;;;;;;3.40;1.70;;;15.60;63.20;;;;;;5023715;28;20494;-82
2021/05/21 07:37:39;;;;;;;3.78;1.23;;;15.60;63.20;;;;;;5051948;28;20036;-84
2021/05/21 07:40:06;;;;;;;3.28;1.40;;;15.60;63.10;;;;;;5051878;28;20086;-84
2021/05/21 07:42:36;;;;;;;2.67;1.30;;;15.70;63.10;;;;;;5074252;28;20029;-83
2021/05/21 07:45:02;;;;;;;4.13;1.40;;;15.60;63.70;;;;;;5073240;28;20107;-83
2021/05/21 07:47:28;;;;;;;3.33;1.45;;;15.70;63.00;;;;;;5055045;28;20392;-82
2021/05/21 07:49:54;;;;;;;3.20;1.15;;;15.70;62.90;;;;;;5028835;28;20128;-84
2021/05/21 07:52:20;;;;;;;3.80;1.63;;;15.70;62.90;;;;;;5022597;28;20031;-83
2021/05/21 07:54:45;;;;;;;2.50;1.33;;;15.80;62.90;;;;;;5008925;28;20056;-83
2021/05/21 07:57:11;;;;;;;3.10;1.48;;;15.80;62.90;;;;;;5038781;28;20032;-83
2021/05/21 07:59:38;;;;;;;2.90;1.25;;;15.80;62.90;;;;;;5055163;28;20039;-86
2021/05/21 08:02:04;;;;;;;2.50;1.27;;;15.90;62.80;;;;;;5019223;28;20017;-83
2021/05/21 08:04:30;;;;;;;3.72;1.50;;;15.90;62.90;;;;;;5030670;28;20052;-83
2021/05/21 08:06:55;;;;;;;3.95;1.50;;;16.00;62.90;;;;;;5038472;28;20036;-82
2021/05/21 08:09:21;;;;;;;2.25;1.15;;;16.00;62.90;;;;;;5033450;28;20479;-84
2021/05/21 08:11:47;;;;;;;1.98;1.42;;;16.00;62.80;;;;;;5037461;28;20027;-84
2021/05/21 08:14:13;;;;;;;2.20;1.25;;;16.00;62.80;;;;;;5055223;28;20387;-85
2021/05/21 08:16:39;;;;;;;2.67;1.02;;;16.10;62.90;;;;;;5059492;28;20028;-85
2021/05/21 08:19:05;;;;;;;2.20;1.00;;;16.10;63.50;;;;;;5054999;28;20583;-84
2021/05/21 08:21:32;;;;;;;2.78;1.20;;;16.10;62.90;;;;;;5043257;28;20025;-84
2021/05/21 08:23:58;;;;;;;1.85;1.10;;;16.20;62.90;;;;;;5053357;28;20032;-84
2021/05/21 08:26:27;;;;;;;1.55;1.20;;;16.20;62.90;;;;;;5022698;28;20060;-86
2021/05/21 08:28:54;;;;;;;3.60;1.40;;;16.20;62.90;;;;;;5035709;28;20033;-85
2021/05/21 08:31:21;;;;;;;1.50;1.30;;;16.20;63.00;;;;;;5072111;28;20063;-83
2021/05/21 08:33:50;;;;;;;2.25;1.15;;;16.20;63.00;;;;;;5072857;28;20054;-85
2021/05/21 08:36:17;;;;;;;1.92;1.20;;;16.20;63.00;;;;;;5034360;28;20049;-84
2021/05/21 08:38:46;;;;;;;1.92;1.00;;;16.20;62.90;;;;;;5038507;28;20024;-83
2021/05/21 08:41:26;;;;;;;2.33;1.13;;;16.30;63.00;;;;;;5038078;28;20028;-84
2021/05/21 08:43:53;;;;;;;2.83;1.23;;;16.30;63.00;;;;;;5038520;28;20063;-83
2021/05/21 08:46:21;;;;;;;2.72;1.30;;;16.40;63.00;;;;;;5038077;28;20425;-83
2021/05/21 08:48:47;;;;;;;3.35;1.30;;;16.40;62.90;;;;;;5055270;28;20105;-82
2021/05/21 08:51:17;;;;;;;1.65;1.00;;;16.40;62.90;;;;;;5054340;28;20032;-84
2021/05/21 08:53:43;;;;;;;2.38;1.30;;;16.50;63.00;;;;;;5047377;28;20090;-83
2021/05/21 08:56:10;;;;;;;2.17;1.10;;;16.50;62.90;;;;;;5034769;28;20029;-83
2021/05/21 08:58:37;;;;;;;1.77;1.08;;;16.50;62.90;;;;;;5037405;28;20048;-83
2021/05/21 09:01:03;;;;;;;2.17;1.00;;;16.60;62.90;;;;;;5072246;28;20102;-83
2021/05/21 09:03:31;;;;;;;1.58;1.00;;;16.60;62.80;;;;;;5017766;28;20095;-83
2021/05/21 09:06:12;;;;;;;2.25;1.30;;;16.70;62.80;;;;;;5044360;28;20029;-84
2021/05/21 09:08:43;;;;;;;2.97;1.30;;;16.70;62.70;;;;;;5048666;28;20028;-83
2021/05/21 09:11:28;;;;;;;1.98;1.08;;;16.80;62.60;;;;;;5029522;28;20085;-82
2021/05/21 09:14:07;;;;;;;1.92;1.00;;;16.90;62.60;;;;;;5054391;28;20123;-84
2021/05/21 09:16:38;;;;;;;3.70;1.30;;;16.90;62.50;;;;;;5072301;28;20465;-85
2021/05/21 09:19:18;;;;;;;3.35;1.40;;;17.00;62.40;;;;;;5018349;28;20082;-85
2021/05/21 09:22:06;;;;;;;2.17;1.15;;;17.10;62.40;;;;;;5029314;28;20033;-91
2021/05/21 09:24:45;;;;;;;4.20;1.55;;;17.10;62.20;;;;;;5063559;28;20029;-89
2021/05/21 09:27:13;;;;;;;2.47;1.10;;;17.20;62.20;;;;;;5051329;28;20075;-93
2021/05/21 09:29:42;;;;;;;2.30;1.40;;;17.20;62.10;;;;;;5033724;28;20017;-89
2021/05/21 09:32:19;;;;;;;3.40;1.20;;;17.30;62.00;;;;;;5054833;28;20029;-88
2021/05/21 09:34:48;;;;;;;4.32;1.30;;;17.30;62.00;;;;;;5069129;28;20465;-87
2021/05/21 09:37:25;;;;;;;2.95;1.20;;;17.30;61.90;;;;;;5024139;28;20063;-88
2021/05/21 09:40:16;;;;;;;3.58;1.60;;;17.40;61.90;;;;;;5038944;28;20384;-88
2021/05/21 09:43:01;;;;;;;2.67;1.35;;;17.40;62.00;;;;;;5048927;28;20025;-90
2021/05/21 09:45:40;;;;;;;3.13;0.90;;;17.50;62.50;;;;;;5055255;28;20115;-90
2021/05/21 09:48:10;;;;;;;3.88;1.45;;;17.50;62.00;;;;;;5040787;28;20024;-89
2021/05/21 09:50:54;;;;;;;2.30;1.25;;;17.50;62.00;;;;;;5069072;28;20063;-89
2021/05/21 09:53:25;;;;;;;4.18;1.13;;;17.50;62.10;;;;;;5041100;28;20094;-88
2021/05/21 09:55:57;;;;;;;2.90;1.00;;;17.50;62.00;;;;;;5031782;28;20021;-89
2021/05/21 09:58:33;;;;;;;2.70;1.25;;;17.50;62.10;;;;;;5037141;28;20079;-87
2021/05/21 10:01:19;;;;;;;3.45;1.50;;;17.50;62.20;;;;;;5047640;28;20484;-87
2021/05/21 10:03:55;;;;;;;3.28;1.23;;;17.50;62.30;;;;;;5054063;28;20113;-89
2021/05/21 10:06:23;;;;;;;2.15;1.10;;;17.60;62.30;;;;;;5069047;28;20040;-91
2021/05/21 10:08:49;;;;;;;2.63;1.15;;;17.60;62.30;;;;;;5059782;28;20028;-84
2021/05/21 10:11:17;;;;;;;3.00;1.20;;;17.60;62.30;;;;;;5050010;28;20384;-87
2021/05/21 10:13:46;;;;;;;3.83;1.80;;;17.60;62.30;;;;;;5060811;28;20043;-91
2021/05/21 10:16:18;;;;;;;3.03;1.50;;;17.60;62.30;;;;;;5052078;28;20044;-86
2021/05/21 10:18:46;;;;;;;3.65;1.40;;;17.60;62.30;;;;;;5059040;28;20385;-88
2021/05/21 10:21:12;;;;;;;2.85;1.20;;;17.60;62.30;;;;;;5075085;28;20380;-87
2021/05/21 10:23:47;;;;;;;2.75;1.25;;;17.70;62.40;;;;;;5076279;28;20040;-88
2021/05/21 10:26:17;;;;;;;2.65;1.30;;;17.60;62.30;;;;;;5076234;28;20037;-87
2021/05/21 10:28:50;;;;;;;2.60;1.35;;;17.70;62.40;;;;;;5058711;28;20032;-87
2021/05/21 10:31:19;;;;;;;3.03;1.20;;;17.70;62.40;;;;;;5076725;28;20125;-84
2021/05/21 10:33:45;;;;;;;2.92;1.30;;;17.70;62.30;;;;;;5057575;28;20028;-86
2021/05/21 10:36:30;;;;;;;3.22;1.30;;;17.70;62.30;;;;;;5050827;28;20063;-85
2021/05/21 10:39:17;;;;;;;3.00;1.17;;;17.80;62.30;;;;;;5080958;28;20055;-86
2021/05/21 10:42:18;;;;;;;2.33;1.30;;;17.80;62.30;;;;;;5075545;28;20040;-86
2021/05/21 10:44:50;;;;;;;2.85;1.20;;;17.80;62.40;;;;;;5057265;28;20052;-87
2021/05/21 10:47:16;;;;;;;4.38;1.30;;;17.80;62.20;;;;;;5041270;28;20404;-86
2021/05/21 10:50:09;;;;;;;2.28;1.00;;;17.90;62.30;;;;;;5034112;28;20025;-86
2021/05/21 10:52:53;;;;;;;2.42;1.40;;;17.90;62.30;;;;;;5062983;28;20025;-85
2021/05/21 10:55:42;;;;;;;2.53;1.10;;;17.90;62.20;;;;;;5053601;28;20140;-86
2021/05/21 10:58:19;;;;;;;2.42;1.20;;;18.00;62.20;;;;;;5050512;28;20032;-84
2021/05/21 11:01:07;;;;;;;1.90;1.15;;;18.00;62.10;;;;;;5057350;28;20495;-86
2021/05/21 11:04:01;;;;;;;2.88;1.30;;;18.00;62.10;;;;;;5074738;28;20029;-85
2021/05/21 11:06:31;;;;;;;1.85;1.10;;;18.10;62.10;;;;;;5075030;28;20044;-85
2021/05/21 11:09:09;;;;;;;3.08;1.10;;;18.10;62.00;;;;;;5073797;28;20113;-85
2021/05/21 11:11:59;;;;;;;2.97;1.05;;;18.10;62.00;;;;;;5073618;28;20017;-85
2021/05/21 11:14:25;;;;;;;2.53;1.17;;;18.10;62.00;;;;;;5043815;28;20051;-85
2021/05/21 11:17:06;;;;;;;3.17;1.38;;;18.20;61.90;;;;;;5057135;28;20060;-85
2021/05/21 11:19:33;;;;;;;2.13;1.27;;;18.20;62.00;;;;;;5044271;28;20039;-84
2021/05/21 11:22:11;;;;;;;2.90;1.50;;;18.20;61.90;;;;;;5056321;28;20373;-85
2021/05/21 11:24:39;;;;;;;2.75;1.23;;;18.30;61.90;;;;;;5043401;28;20476;-84
2021/05/21 11:27:07;;;;;;;2.83;1.13;;;18.30;61.80;;;;;;5040283;28;20031;-84
2021/05/21 11:29:34;;;;;;;2.47;1.20;;;18.30;61.80;;;;;;5039720;28;20039;-84
2021/05/21 11:32:01;;;;;;;2.80;1.08;;;18.40;61.80;;;;;;5074756;28;20020;-85
2021/05/21 11:34:27;;;;;;;4.07;1.23;;;18.40;61.80;;;;;;5039560;28;21308;-84
2021/05/21 11:36:56;;;;;;;2.78;1.00;;;18.40;61.80;;;;;;5041862;28;20041;-84
2021/05/21 11:39:26;;;;;;;2.22;1.13;;;18.50;61.80;;;;;;5052453;28;20469;-87
2021/05/21 11:41:53;;;;;;;2.38;1.23;;;18.50;61.80;;;;;;5079678;28;20065;-82
2021/05/21 11:44:24;;;;;;;2.58;1.25;;;18.50;61.70;;;;;;5059373;28;20119;-87
2021/05/21 11:47:02;;;;;;;2.97;1.23;;;18.50;61.70;;;;;;5023139;28;20021;-86
2021/05/21 11:49:28;;;;;;;1.95;1.05;;;18.60;61.70;;;;;;5049500;28;20084;-87
2021/05/21 11:51:57;;;;;;;3.17;1.30;;;18.60;61.60;;;;;;5012308;28;20116;-86
2021/05/21 11:54:24;;;;;;;3.08;1.20;;;18.60;61.60;;;;;;5071748;28;20028;-86
2021/05/21 11:56:50;;;;;;;2.42;1.33;;;18.60;61.60;;;;;;5038844;28;20036;-83
2021/05/21 11:59:18;;;;;;;2.92;1.15;;;18.60;61.60;;;;;;5055617;28;20048;-83
2021/05/21 12:01:50;;;;;;;3.60;1.35;;;18.60;61.70;;;;;;5035538;28;20079;-83
2021/05/21 12:04:16;;;;;;;3.33;1.20;;;18.70;61.80;;;;;;5051055;28;20129;-83
2021/05/21 12:06:47;;;;;;;1.77;1.02;;;18.60;61.70;;;;;;5040799;28;20025;-81
2021/05/21 12:09:14;;;;;;;2.15;1.08;;;18.70;61.70;;;;;;5055806;28;20138;-87
2021/05/21 12:11:40;;;;;;;4.05;1.10;;;18.60;61.70;;;;;;5055623;28;20119;-85
2021/05/21 12:14:09;;;;;;;2.40;1.23;;;18.60;61.70;;;;;;5039402;28;20033;-87
2021/05/21 12:16:36;;;;;;;5.53;1.58;;;18.60;61.80;;;;;;5038992;28;20553;-84
2021/05/21 12:19:03;;;;;;;4.38;1.30;;;18.60;61.80;;;;;;5042251;28;20044;-85
2021/05/21 12:21:32;;;;;;;2.50;1.30;;;18.70;61.90;;;;;;5072652;28;20421;-84
2021/05/21 12:23:59;;;;;;;2.75;1.10;;;18.60;61.80;;;;;;5055760;28;20035;-85
2021/05/21 12:26:28;;;;;;;3.05;1.13;;;18.60;61.80;;;;;;5026369;28;20028;-85
2021/05/21 12:28:55;;;;;;;3.63;1.38;;;18.60;62.20;;;;;;5059663;28;20527;-85
2021/05/21 12:31:29;;;;;;;1.98;1.20;;;18.60;62.00;;;;;;5038665;28;20484;-85
2021/05/21 12:33:57;;;;;;;2.28;1.20;;;18.60;62.00;;;;;;5073963;28;20039;-85
2021/05/21 12:36:25;;;;;;;3.25;1.45;;;18.60;61.90;;;;;;5039427;28;20048;-87
2021/05/21 12:38:57;;;;;;;4.18;1.25;;;18.60;62.00;;;;;;5056044;28;20082;-87
2021/05/21 12:41:39;;;;;;;2.42;0.90;;;18.60;62.00;;;;;;5053782;28;20145;-88
2021/05/21 12:44:16;;;;;;;3.05;1.23;;;18.60;62.00;;;;;;5039162;28;20111;-87
2021/05/21 12:46:53;;;;;;;3.00;1.20;;;18.60;62.00;;;;;;5055318;28;20511;-86
2021/05/21 12:49:22;;;;;;;2.28;1.30;;;18.60;62.10;;;;;;5056168;28;20457;-86
2021/05/21 12:51:52;;;;;;;3.45;1.30;;;18.60;62.00;;;;;;5055048;28;20024;-86
2021/05/21 12:54:45;;;;;;;3.95;1.20;;;18.60;62.00;;;;;;5019773;28;20040;-87
2021/05/21 12:57:26;;;;;;;1.38;1.13;;;18.60;62.10;;;;;;5018877;28;20130;-84